Time;durP1;ratioP1;P1;durP2;ratioP2;P2;SDS_P1;SDS_P2;PMS_P1;PMS_P2;Temp;Humidity;BMP_temperature;BMP_pressure;BME280_temperature;BME280_humidity;BME280_pressure;Samples;Min_cycle;Max_cycle;Signal;HPM_P1;HPM_P2
2023/07/01 00:00:59;;;;;;;8.15;2.10;;;20.20;99.90;;;;;;5126425;23;20148;-95
2023/07/01 00:03:20;;;;;;;8.20;2.13;;;19.90;99.90;;;;;;5124576;23;20181;-96
2023/07/01 00:05:21;;;;;;;5.95;2.10;;;19.70;99.90;;;;;;5138856;23;20235;-96
2023/07/01 00:07:55;;;;;;;8.85;2.22;;;19.50;99.90;;;;;;5114108;23;20157;-93
2023/07/01 00:10:02;;;;;;;8.20;2.17;;;19.50;99.90;;;;;;5115545;23;20157;-93
2023/07/01 00:12:12;;;;;;;9.00;2.35;;;19.50;99.90;;;;;;5115968;23;20188;-95
2023/07/01 00:14:20;;;;;;;10.00;2.20;;;19.30;99.90;;;;;;5139691;23;20200;-92
2023/07/01 00:17:02;;;;;;;10.63;1.95;;;19.20;99.90;;;;;;5115380;23;20136;-93
2023/07/01 00:19:10;;;;;;;8.80;2.33;;;19.00;99.90;;;;;;5137749;23;20152;-96
2023/07/01 00:21:20;;;;;;;9.45;2.13;;;18.90;99.90;;;;;;5137616;23;20149;-96
2023/07/01 00:23:38;;;;;;;15.18;2.20;;;18.80;99.90;;;;;;5136400;23;20155;-95
2023/07/01 00:29:11;;;;;;;9.05;2.13;;;19.00;99.90;;;;;;5122290;23;20194;-95
2023/07/01 00:31:58;;;;;;;11.00;2.38;;;19.00;99.90;;;;;;5015043;23;20247;-95
2023/07/01 00:33:59;;;;;;;4.43;1.80;;;19.10;99.90;;;;;;4995004;23;20223;-94
2023/07/01 00:36:12;;;;;;;10.77;2.00;;;19.00;99.90;;;;;;5012848;23;20152;-95
2023/07/01 00:39:03;;;;;;;12.20;2.53;;;19.00;99.90;;;;;;5012761;23;20179;-96
2023/07/01 00:41:20;;;;;;;8.15;2.20;;;18.80;99.90;;;;;;5040582;23;20191;-96
2023/07/01 00:43:21;;;;;;;6.28;2.00;;;18.80;99.90;;;;;;5015816;23;20212;-94
2023/07/01 00:46:16;;;;;;;8.63;2.10;;;18.90;99.90;;;;;;5011731;23;20156;-96
2023/07/01 00:51:28;;;;;;;4.95;1.95;;;19.00;99.90;;;;;;5084703;23;20181;-95
2023/07/01 00:53:32;;;;;;;7.20;1.85;;;18.90;99.90;;;;;;5052031;23;20155;-91
2023/07/01 00:56:27;;;;;;;6.90;1.85;;;19.00;99.90;;;;;;5079128;23;20244;-95
2023/07/01 00:58:51;;;;;;;5.03;1.80;;;19.10;99.90;;;;;;4977890;23;20324;-95
2023/07/01 01:01:50;;;;;;;8.68;2.35;;;19.10;99.90;;;;;;4978067;23;20587;-96
2023/07/01 01:04:36;;;;;;;9.23;1.83;;;19.20;99.90;;;;;;4933352;24;20178;-95
2023/07/01 01:11:31;;;;;;;4.78;2.03;;;19.00;99.90;;;;;;5152295;23;20198;-95
2023/07/01 01:14:13;;;;;;;7.97;1.90;;;19.00;99.90;;;;;;5148455;23;20206;-95
2023/07/01 01:18:43;;;;;;;5.78;1.90;;;18.90;99.90;;;;;;4469690;23;15101604;-94
2023/07/01 01:24:46;;;;;;;6.82;1.83;;;19.00;99.90;;;;;;5126467;23;20168;-96
2023/07/01 01:26:59;;;;;;;7.22;1.52;;;18.70;99.90;;;;;;5097714;23;20237;-94
2023/07/01 01:29:06;;;;;;;3.08;1.60;;;18.70;99.90;;;;;;5085133;23;20240;-94
2023/07/01 01:31:51;;;;;;;5.25;1.77;;;18.70;99.90;;;;;;5090017;23;20208;-95
2023/07/01 01:34:00;;;;;;;8.52;1.80;;;18.60;99.90;;;;;;5092493;23;20910;-94
2023/07/01 01:36:56;;;;;;;5.03;1.60;;;18.50;99.90;;;;;;5116278;23;20149;-94
2023/07/01 01:40:00;;;;;;;7.70;1.73;;;18.50;99.90;;;;;;5035854;23;20170;-94
2023/07/01 01:42:24;;;;;;;9.27;2.20;;;18.60;99.90;;;;;;5090239;23;20165;-93
2023/07/01 01:44:47;;;;;;;8.38;2.17;;;18.60;99.90;;;;;;5105059;23;20160;-94
2023/07/01 01:46:48;;;;;;;8.23;2.20;;;18.40;99.90;;;;;;5094146;23;20152;-95
2023/07/01 01:48:49;;;;;;;3.97;2.03;;;18.50;99.90;;;;;;5069651;23;20170;-96
2023/07/01 01:50:53;;;;;;;7.40;2.08;;;18.40;99.90;;;;;;5069417;23;20237;-89
2023/07/01 01:52:56;;;;;;;8.00;2.30;;;18.50;99.90;;;;;;5070349;23;20154;-95
2023/07/01 01:54:58;;;;;;;7.47;2.00;;;18.40;99.90;;;;;;5070201;23;20146;-95
2023/07/01 01:57:00;;;;;;;6.32;2.05;;;18.30;99.90;;;;;;5069698;23;20154;-96
2023/07/01 01:59:00;;;;;;;9.18;2.30;;;18.10;99.90;;;;;;5069921;23;20169;-90
2023/07/01 02:01:01;;;;;;;5.03;2.30;;;18.00;99.90;;;;;;5072092;23;20695;-96
2023/07/01 02:03:02;;;;;;;4.20;2.25;;;18.00;99.90;;;;;;5070570;23;20154;-91
2023/07/01 02:05:03;;;;;;;6.63;2.47;;;18.10;99.90;;;;;;5094380;23;20164;-93
2023/07/01 02:07:05;;;;;;;5.32;2.35;;;18.00;99.90;;;;;;5069501;23;20189;-93
2023/07/01 02:09:05;;;;;;;6.70;2.53;;;18.10;99.90;;;;;;5069531;23;20177;-93
2023/07/01 02:11:08;;;;;;;6.68;2.40;;;18.00;99.90;;;;;;5069184;23;20281;-90
2023/07/01 02:13:09;;;;;;;5.85;2.13;;;18.20;99.90;;;;;;5069678;23;20145;-93
2023/07/01 02:15:10;;;;;;;8.13;2.13;;;18.00;99.90;;;;;;5094128;23;20476;-95
2023/07/01 02:17:11;;;;;;;8.40;2.40;;;17.80;99.90;;;;;;5069667;23;20152;-94
2023/07/01 02:19:12;;;;;;;7.40;2.00;;;17.70;99.90;;;;;;5093982;23;20161;-92
2023/07/01 02:21:12;;;;;;;4.78;1.90;;;18.00;99.90;;;;;;5069446;23;20170;-93
2023/07/01 02:23:13;;;;;;;3.60;1.90;;;17.80;99.90;;;;;;5069701;23;20667;-94
2023/07/01 02:25:14;;;;;;;5.00;1.77;;;17.70;99.90;;;;;;5093588;23;20156;-89
2023/07/01 02:27:15;;;;;;;3.55;1.80;;;17.60;99.90;;;;;;5069181;23;20176;-94
2023/07/01 02:29:16;;;;;;;5.75;2.17;;;17.60;99.90;;;;;;5093663;23;20149;-93
2023/07/01 02:31:18;;;;;;;8.32;1.70;;;17.50;99.90;;;;;;5093604;23;20188;-95
2023/07/01 02:33:19;;;;;;;4.57;1.50;;;17.50;99.90;;;;;;5069659;23;20180;-95
2023/07/01 02:35:20;;;;;;;6.95;1.90;;;17.50;99.90;;;;;;5069167;23;20168;-95
2023/07/01 02:37:20;;;;;;;7.15;1.70;;;17.60;99.90;;;;;;5093900;23;20493;-89
2023/07/01 02:39:21;;;;;;;4.93;1.90;;;17.70;99.90;;;;;;5068934;23;20149;-93
2023/07/01 02:41:22;;;;;;;6.95;2.08;;;17.50;99.90;;;;;;5069585;23;20172;-95
2023/07/01 02:43:23;;;;;;;6.40;1.60;;;17.40;99.90;;;;;;5069713;23;20210;-91
2023/07/01 02:45:24;;;;;;;3.65;1.77;;;17.30;99.90;;;;;;5093537;23;20148;-95
2023/07/01 02:47:25;;;;;;;4.63;2.08;;;17.30;99.90;;;;;;5093198;23;20682;-94
2023/07/01 02:49:25;;;;;;;5.95;2.05;;;17.20;99.90;;;;;;5069300;23;20236;-95
2023/07/01 02:51:26;;;;;;;6.82;1.65;;;17.20;99.90;;;;;;5069036;23;20189;-90
2023/07/01 02:53:27;;;;;;;4.82;1.67;;;17.20;99.90;;;;;;5093287;23;20149;-95
2023/07/01 02:55:31;;;;;;;5.18;1.75;;;17.20;99.90;;;;;;5069101;23;20205;-94
2023/07/01 02:57:31;;;;;;;5.32;2.03;;;17.30;99.90;;;;;;5093230;23;20173;-94
2023/07/01 02:59:32;;;;;;;6.68;2.15;;;17.50;99.90;;;;;;5069418;23;20505;-93
2023/07/01 03:01:33;;;;;;;6.80;1.88;;;17.40;99.90;;;;;;5118446;23;20144;-87
2023/07/01 03:03:34;;;;;;;5.88;1.85;;;17.30;99.90;;;;;;5069188;23;20209;-95
2023/07/01 03:05:36;;;;;;;6.70;1.77;;;17.40;99.90;;;;;;5069091;23;20173;-92
2023/07/01 03:07:37;;;;;;;6.18;1.73;;;17.40;99.90;;;;;;5093765;23;20181;-92
2023/07/01 03:09:38;;;;;;;4.93;1.92;;;17.30;99.90;;;;;;5069050;23;20248;-93
2023/07/01 03:11:38;;;;;;;3.50;1.73;;;17.20;99.90;;;;;;5068654;23;20193;-93
2023/07/01 03:13:39;;;;;;;5.07;1.58;;;17.20;99.90;;;;;;5093418;23;20145;-94
2023/07/01 03:15:40;;;;;;;5.90;1.95;;;17.20;99.90;;;;;;5069395;23;20154;-93
2023/07/01 03:17:41;;;;;;;5.15;1.60;;;17.10;99.90;;;;;;5093495;23;20696;-92
2023/07/01 03:19:43;;;;;;;3.63;1.27;;;17.10;99.90;;;;;;5069294;23;20158;-95
2023/07/01 03:21:45;;;;;;;5.88;1.52;;;17.20;99.90;;;;;;5069019;23;20490;-94
2023/07/01 03:23:46;;;;;;;5.00;1.73;;;17.10;99.90;;;;;;5068991;23;20162;-92
2023/07/01 03:25:48;;;;;;;5.47;1.80;;;17.10;99.90;;;;;;5069669;23;20189;-94
2023/07/01 03:27:49;;;;;;;5.63;1.63;;;17.10;99.90;;;;;;5069131;23;20177;-95
2023/07/01 03:29:50;;;;;;;6.05;1.63;;;17.20;99.90;;;;;;5069708;23;20600;-95
2023/07/01 03:31:50;;;;;;;4.25;1.52;;;17.30;99.90;;;;;;5093497;23;20628;-93
2023/07/01 03:33:51;;;;;;;4.30;1.85;;;17.30;99.90;;;;;;5069420;23;20177;-94
2023/07/01 03:35:52;;;;;;;6.03;1.75;;;17.30;99.90;;;;;;5069248;23;20177;-93
2023/07/01 03:37:53;;;;;;;8.48;1.77;;;17.30;99.90;;;;;;5093899;23;20643;-94
2023/07/01 03:39:53;;;;;;;3.88;1.83;;;17.40;99.90;;;;;;5069195;23;20237;-93
2023/07/01 03:41:54;;;;;;;4.55;1.55;;;17.30;99.90;;;;;;5068851;23;20153;-94
2023/07/01 03:43:56;;;;;;;3.30;1.30;;;17.30;99.90;;;;;;5069223;23;20541;-95
2023/07/01 03:45:56;;;;;;;5.65;1.50;;;17.30;99.90;;;;;;5069211;23;20153;-95
2023/07/01 03:47:57;;;;;;;5.70;1.67;;;17.30;99.90;;;;;;5093368;23;20168;-93
2023/07/01 03:49:58;;;;;;;4.88;1.73;;;17.40;99.90;;;;;;5093162;23;20160;-93
2023/07/01 03:51:59;;;;;;;5.55;1.50;;;17.50;99.90;;;;;;5069802;23;20204;-93
2023/07/01 03:53:59;;;;;;;4.13;1.75;;;17.40;99.90;;;;;;5119505;23;20148;-91
2023/07/01 03:56:00;;;;;;;2.53;1.40;;;17.40;99.90;;;;;;5070211;23;20285;-94
2023/07/01 03:58:01;;;;;;;7.05;1.70;;;17.40;99.90;;;;;;5070208;23;20248;-92
2023/07/01 04:00:08;;;;;;;3.65;1.50;;;17.30;99.90;;;;;;5094647;23;20232;-94
2023/07/01 04:02:14;;;;;;;2.45;1.10;;;17.30;99.90;;;;;;5095493;23;20524;-94
2023/07/01 04:04:14;;;;;;;3.63;1.30;;;17.20;99.90;;;;;;5070282;23;20146;-94
2023/07/01 04:06:15;;;;;;;6.57;1.60;;;17.30;99.90;;;;;;5070358;23;20232;-94
2023/07/01 04:08:16;;;;;;;2.88;1.40;;;17.30;99.90;;;;;;5070176;23;20197;-94
2023/07/01 04:10:17;;;;;;;4.47;1.50;;;17.40;99.90;;;;;;5094497;23;20157;-95
2023/07/01 04:12:18;;;;;;;2.65;1.30;;;17.50;99.90;;;;;;5069950;23;20276;-93
2023/07/01 04:14:19;;;;;;;2.22;1.38;;;17.70;99.90;;;;;;5094693;23;20172;-95
2023/07/01 04:16:20;;;;;;;2.75;1.25;;;17.60;99.90;;;;;;5070435;23;20154;-93
2023/07/01 04:18:21;;;;;;;1.73;1.10;;;17.60;99.90;;;;;;5070337;23;20269;-93
2023/07/01 04:20:22;;;;;;;1.55;0.90;;;17.50;99.90;;;;;;5070643;23;20675;-93
2023/07/01 04:22:26;;;;;;;2.35;0.90;;;17.50;99.90;;;;;;5070161;23;20613;-91
2023/07/01 04:24:26;;;;;;;4.20;1.00;;;17.50;99.90;;;;;;5094612;23;20244;-92
2023/07/01 04:26:27;;;;;;;2.13;1.10;;;17.40;99.90;;;;;;5094359;23;20188;-93
2023/07/01 04:28:28;;;;;;;1.60;0.90;;;17.40;99.90;;;;;;5069876;23;20180;-92
2023/07/01 04:30:29;;;;;;;5.40;1.10;;;17.30;99.90;;;;;;5119125;23;20151;-92
2023/07/01 04:32:30;;;;;;;2.20;1.00;;;17.30;99.90;;;;;;5094362;23;20247;-93
2023/07/01 04:34:30;;;;;;;2.00;1.00;;;17.50;99.90;;;;;;5069876;23;20608;-94
2023/07/01 04:36:31;;;;;;;2.03;0.88;;;17.40;99.90;;;;;;5094845;23;20157;-93
2023/07/01 04:38:32;;;;;;;1.25;0.80;;;17.50;99.90;;;;;;5095309;23;20164;-93
2023/07/01 04:40:33;;;;;;;1.88;0.77;;;17.60;99.90;;;;;;5094615;23;20157;-93
2023/07/01 04:42:34;;;;;;;2.65;0.88;;;17.50;99.90;;;;;;5094425;23;20149;-93
2023/07/01 04:44:35;;;;;;;2.60;0.82;;;17.40;99.90;;;;;;5094756;23;20160;-94
2023/07/01 04:46:36;;;;;;;2.35;0.70;;;17.40;99.90;;;;;;5070097;23;20157;-93
2023/07/01 04:48:36;;;;;;;1.42;0.75;;;17.30;99.90;;;;;;5070135;23;20213;-91
2023/07/01 04:50:37;;;;;;;1.15;0.63;;;17.40;99.90;;;;;;5069739;23;20259;-95
2023/07/01 04:52:38;;;;;;;3.80;0.88;;;17.30;99.90;;;;;;5094480;23;20169;-93
2023/07/01 04:54:39;;;;;;;1.67;0.77;;;17.20;99.90;;;;;;5069783;23;20154;-93
2023/07/01 04:56:39;;;;;;;1.17;0.63;;;17.20;99.90;;;;;;5069875;23;20154;-93
2023/07/01 04:58:41;;;;;;;1.40;0.70;;;17.30;99.90;;;;;;5094182;23;20165;-93
2023/07/01 05:00:42;;;;;;;4.18;0.77;;;17.20;99.90;;;;;;5094194;23;20161;-93
2023/07/01 05:02:42;;;;;;;1.15;0.70;;;17.30;99.90;;;;;;5069785;23;20197;-95
2023/07/01 05:04:44;;;;;;;0.70;0.70;;;17.50;99.90;;;;;;5070031;23;20164;-92
2023/07/01 05:06:45;;;;;;;2.33;0.80;;;17.70;99.90;;;;;;5072506;23;20152;-95
2023/07/01 05:08:46;;;;;;;1.77;0.77;;;17.70;99.90;;;;;;5073019;23;20637;-96
2023/07/01 05:10:47;;;;;;;2.20;0.90;;;17.60;99.90;;;;;;5074966;23;20466;-96
2023/07/01 05:12:47;;;;;;;0.70;0.70;;;17.50;99.90;;;;;;5077561;23;20241;-95
2023/07/01 05:14:48;;;;;;;2.88;0.60;;;17.50;99.90;;;;;;5074416;23;20154;-94
2023/07/01 05:16:56;;;;;;;2.35;0.90;;;17.50;99.90;;;;;;5106184;23;20144;-96
2023/07/01 05:18:58;;;;;;;1.27;0.88;;;17.60;99.90;;;;;;5097830;23;20172;-96
2023/07/01 05:20:59;;;;;;;2.92;0.80;;;17.70;99.90;;;;;;5071328;23;20161;-96
2023/07/01 05:23:05;;;;;;;0.70;0.70;;;17.70;99.90;;;;;;5094956;23;20220;-95
2023/07/01 05:25:09;;;;;;;2.20;0.90;;;17.90;99.90;;;;;;5096023;23;20204;-94
2023/07/01 05:27:10;;;;;;;3.90;0.95;;;17.90;99.90;;;;;;5094724;23;20176;-94
2023/07/01 05:29:10;;;;;;;2.28;1.00;;;17.80;99.90;;;;;;5070458;23;20157;-96
2023/07/01 05:31:11;;;;;;;2.25;0.85;;;17.70;99.90;;;;;;5071062;23;20185;-93
2023/07/01 05:33:12;;;;;;;5.47;1.08;;;17.70;99.90;;;;;;5070841;23;20164;-95
2023/07/01 05:35:13;;;;;;;2.28;1.00;;;17.70;99.90;;;;;;5094526;23;20200;-95
2023/07/01 05:37:14;;;;;;;3.75;0.90;;;17.80;99.90;;;;;;5099029;23;20160;-96
2023/07/01 05:39:16;;;;;;;2.38;1.00;;;17.80;99.90;;;;;;5071369;23;20192;-93
2023/07/01 05:41:19;;;;;;;3.08;1.05;;;17.90;99.90;;;;;;5070633;23;20431;-94
2023/07/01 05:43:20;;;;;;;1.63;1.00;;;17.80;99.90;;;;;;5075175;23;20165;-96
2023/07/01 05:45:20;;;;;;;2.85;0.90;;;17.90;99.90;;;;;;5095350;23;20157;-94
2023/07/01 05:47:21;;;;;;;1.20;0.90;;;18.00;99.90;;;;;;5071380;23;20146;-94
2023/07/01 05:49:22;;;;;;;2.92;1.20;;;18.20;99.90;;;;;;5099987;23;20156;-94
2023/07/01 05:51:23;;;;;;;0.85;0.80;;;18.20;99.90;;;;;;5076884;23;20581;-95
2023/07/01 05:53:24;;;;;;;2.20;0.90;;;18.30;99.90;;;;;;5074547;23;20651;-93
2023/07/01 05:55:24;;;;;;;1.77;1.08;;;18.20;99.90;;;;;;5071736;23;20204;-95
2023/07/01 05:57:25;;;;;;;1.85;0.80;;;18.20;99.90;;;;;;5071663;23;20197;-96
2023/07/01 05:59:26;;;;;;;3.83;0.90;;;18.10;99.90;;;;;;5072256;23;20156;-95
2023/07/01 06:01:28;;;;;;;1.88;1.00;;;18.10;99.90;;;;;;5119273;23;20155;-95
2023/07/01 06:03:32;;;;;;;1.33;0.68;;;18.00;99.90;;;;;;5096024;23;20149;-95
2023/07/01 06:05:33;;;;;;;1.75;0.70;;;17.90;99.90;;;;;;5071812;23;20169;-95
2023/07/01 06:07:34;;;;;;;4.53;0.80;;;17.90;99.90;;;;;;5126660;23;20184;-94
2023/07/01 06:09:37;;;;;;;0.77;0.70;;;18.00;99.90;;;;;;5071089;23;20580;-95
2023/07/01 06:11:38;;;;;;;1.85;0.60;;;18.20;99.90;;;;;;5095127;23;20270;-95
2023/07/01 06:13:47;;;;;;;1.17;0.55;;;18.20;99.90;;;;;;5072038;23;20153;-95
2023/07/01 06:15:48;;;;;;;1.20;0.65;;;18.20;99.90;;;;;;5071060;23;20153;-94
2023/07/01 06:17:54;;;;;;;4.22;0.70;;;18.40;99.90;;;;;;5095921;23;20219;-96
2023/07/01 06:19:58;;;;;;;5.25;0.63;;;18.50;99.90;;;;;;5072137;23;20236;-94
2023/07/01 06:22:01;;;;;;;3.22;0.60;;;18.50;99.90;;;;;;5071095;23;20158;-95
2023/07/01 06:24:03;;;;;;;0.82;0.50;;;18.40;99.90;;;;;;5072248;23;20153;-95
2023/07/01 06:26:06;;;;;;;0.55;0.50;;;18.30;99.90;;;;;;5070024;23;20164;-94
2023/07/01 06:28:16;;;;;;;0.75;0.47;;;18.40;99.90;;;;;;5069934;23;20169;-95
2023/07/01 06:30:37;;;;;;;0.52;0.30;;;18.40;99.90;;;;;;5094967;23;20157;-96
2023/07/01 06:32:48;;;;;;;1.85;0.52;;;18.30;99.90;;;;;;5089750;23;20588;-95
2023/07/01 06:34:52;;;;;;;2.13;0.32;;;18.20;99.90;;;;;;5071211;23;20168;-95
2023/07/01 06:36:53;;;;;;;0.32;0.30;;;18.30;99.90;;;;;;5070989;23;20157;-95
2023/07/01 06:38:53;;;;;;;2.03;0.40;;;18.40;99.90;;;;;;5095211;23;20662;-95
2023/07/01 06:41:03;;;;;;;5.07;0.60;;;18.40;99.90;;;;;;5071526;23;20515;-95
2023/07/01 06:43:31;;;;;;;0.75;0.43;;;18.50;99.90;;;;;;5071312;23;20161;-96
2023/07/01 06:45:38;;;;;;;0.90;0.40;;;18.50;99.90;;;;;;5095323;23;20265;-94
2023/07/01 06:47:38;;;;;;;2.15;0.80;;;18.40;99.90;;;;;;5070010;23;20193;-94
2023/07/01 06:49:39;;;;;;;1.27;0.80;;;18.50;99.90;;;;;;5118276;23;20187;-94
2023/07/01 06:51:41;;;;;;;1.35;0.80;;;18.60;99.90;;;;;;5070016;23;20517;-91
2023/07/01 06:54:13;;;;;;;2.08;0.73;;;18.50;99.90;;;;;;5069541;23;20473;-96
2023/07/01 06:56:14;;;;;;;2.80;0.80;;;18.50;99.90;;;;;;5069696;23;20157;-93
2023/07/01 06:58:16;;;;;;;1.20;0.68;;;18.50;99.90;;;;;;5094687;23;20173;-94
2023/07/01 07:00:17;;;;;;;1.02;0.80;;;18.70;99.90;;;;;;5069882;23;20237;-93
2023/07/01 07:02:28;;;;;;;1.23;0.80;;;18.60;99.90;;;;;;5095001;23;20176;-92
2023/07/01 07:04:29;;;;;;;1.52;0.80;;;18.60;99.90;;;;;;5071475;23;20236;-93
2023/07/01 07:06:41;;;;;;;0.85;0.80;;;18.80;99.90;;;;;;5069579;23;20146;-94
2023/07/01 07:08:43;;;;;;;0.80;0.70;;;18.70;99.90;;;;;;5066702;23;20188;-95
2023/07/01 07:10:45;;;;;;;1.85;0.80;;;18.60;99.90;;;;;;5094158;23;20153;-94
2023/07/01 07:12:50;;;;;;;5.20;1.00;;;18.70;99.90;;;;;;5071365;23;20181;-94
2023/07/01 07:14:51;;;;;;;1.88;0.82;;;18.80;99.90;;;;;;5070883;23;20632;-93
2023/07/01 07:16:52;;;;;;;1.48;0.60;;;18.80;99.90;;;;;;5094400;23;20163;-94
2023/07/01 07:19:01;;;;;;;1.42;0.80;;;18.70;99.90;;;;;;5070004;23;20177;-95
2023/07/01 07:23:28;;;;;;;1.35;0.57;;;18.70;99.90;;;;;;5077037;23;20231;-94
2023/07/01 07:26:00;;;;;;;1.27;0.60;;;18.70;99.90;;;;;;5070780;23;20153;-94
2023/07/01 07:28:06;;;;;;;1.20;0.60;;;18.70;99.90;;;;;;5055897;23;20170;-95
2023/07/01 07:30:08;;;;;;;0.80;0.60;;;18.90;99.90;;;;;;5071562;23;20188;-95
2023/07/01 07:32:11;;;;;;;3.20;0.60;;;18.80;99.90;;;;;;5071586;23;20189;-95
2023/07/01 07:34:15;;;;;;;0.90;0.50;;;18.90;99.90;;;;;;5071501;23;20284;-95
2023/07/01 07:36:19;;;;;;;0.88;0.60;;;19.00;99.90;;;;;;5071150;23;20153;-95
2023/07/01 07:38:19;;;;;;;2.97;0.60;;;19.10;99.90;;;;;;5095303;23;20173;-95
2023/07/01 07:40:20;;;;;;;1.35;0.60;;;19.00;99.90;;;;;;5071751;23;20181;-95
2023/07/01 07:42:22;;;;;;;3.50;0.65;;;19.20;99.90;;;;;;5071043;23;20605;-94
2023/07/01 07:44:22;;;;;;;2.30;0.60;;;19.30;99.90;;;;;;5071013;23;20481;-95
2023/07/01 07:46:24;;;;;;;0.80;0.60;;;19.40;99.90;;;;;;5070420;23;20153;-94
2023/07/01 07:48:24;;;;;;;1.65;0.60;;;19.50;99.90;;;;;;5094511;23;20177;-93
2023/07/01 07:50:25;;;;;;;0.80;0.55;;;19.50;99.90;;;;;;5070423;23;20216;-93
2023/07/01 07:54:32;;;;;;;2.30;0.70;;;19.80;99.90;;;;;;5145618;23;20633;-85
2023/07/01 07:56:33;;;;;;;1.00;0.50;;;19.80;99.90;;;;;;5118619;23;20156;-86
2023/07/01 07:58:33;;;;;;;0.77;0.40;;;19.90;99.90;;;;;;5101381;23;20161;-87
2023/07/01 08:00:34;;;;;;;3.97;0.68;;;19.70;99.90;;;;;;5120175;23;20475;-86
2023/07/01 08:02:37;;;;;;;3.80;0.60;;;19.70;99.90;;;;;;5094108;23;20149;-85
2023/07/01 08:04:38;;;;;;;2.13;0.60;;;19.90;99.90;;;;;;5069801;23;20158;-86
2023/07/01 08:06:38;;;;;;;1.33;0.63;;;20.00;99.90;;;;;;5094206;23;20156;-85
2023/07/01 08:08:39;;;;;;;1.30;0.60;;;20.00;99.90;;;;;;5093827;23;20223;-86
2023/07/01 08:10:44;;;;;;;1.33;0.63;;;19.90;99.90;;;;;;5069715;23;20536;-86
2023/07/01 08:12:44;;;;;;;2.35;0.63;;;20.00;99.90;;;;;;5069766;23;20166;-85
2023/07/01 08:14:45;;;;;;;1.52;0.73;;;20.10;99.90;;;;;;5069281;23;20518;-85
2023/07/01 08:16:46;;;;;;;0.60;0.60;;;20.00;99.90;;;;;;5093877;23;20176;-85
2023/07/01 08:18:46;;;;;;;1.98;0.70;;;20.00;99.90;;;;;;5069970;23;20181;-86
2023/07/01 08:20:47;;;;;;;0.93;0.82;;;20.10;99.90;;;;;;5094010;23;20149;-85
2023/07/01 08:22:48;;;;;;;1.17;0.80;;;20.00;99.90;;;;;;5093826;23;20639;-86
2023/07/01 08:24:49;;;;;;;2.72;1.08;;;19.90;99.90;;;;;;5093700;23;20160;-85
2023/07/01 08:26:49;;;;;;;2.20;0.90;;;19.90;99.90;;;;;;5093923;23;20141;-85
2023/07/01 08:28:50;;;;;;;1.70;0.90;;;19.90;99.90;;;;;;5094044;23;20188;-86
2023/07/01 08:30:51;;;;;;;2.58;1.23;;;19.80;99.90;;;;;;5069455;23;20150;-85
2023/07/01 08:32:51;;;;;;;1.20;1.10;;;19.80;99.90;;;;;;5118720;23;20156;-85
2023/07/01 08:34:52;;;;;;;1.90;1.50;;;19.90;99.90;;;;;;5093662;23;20149;-85
2023/07/01 08:36:53;;;;;;;5.00;1.58;;;19.90;99.90;;;;;;5069397;23;20157;-86
2023/07/01 08:38:54;;;;;;;3.30;1.65;;;19.90;99.90;;;;;;5069439;23;20174;-86
2023/07/01 08:40:59;;;;;;;2.72;1.80;;;19.90;99.90;;;;;;5094214;23;20268;-85
2023/07/01 08:43:03;;;;;;;2.03;1.83;;;19.90;99.90;;;;;;5069464;23;20150;-86
2023/07/01 08:45:05;;;;;;;2.63;2.20;;;19.90;99.90;;;;;;5069127;23;20161;-86
2023/07/01 08:47:07;;;;;;;2.80;1.85;;;20.00;99.90;;;;;;5094018;23;20220;-86
2023/07/01 08:49:09;;;;;;;2.45;2.00;;;20.00;99.90;;;;;;5069338;23;20173;-85
2023/07/01 08:51:31;;;;;;;3.60;2.20;;;20.10;99.90;;;;;;5069199;23;20272;-86
2023/07/01 08:53:32;;;;;;;3.85;2.28;;;20.30;99.90;;;;;;5093149;23;20236;-85
2023/07/01 08:55:34;;;;;;;2.53;2.20;;;20.50;99.90;;;;;;5093836;23;20157;-86
2023/07/01 08:57:36;;;;;;;3.40;2.22;;;20.70;99.90;;;;;;5069192;23;20181;-86
2023/07/01 08:59:38;;;;;;;3.35;2.22;;;20.90;99.90;;;;;;5069788;23;20153;-86
2023/07/01 09:01:38;;;;;;;2.30;2.10;;;21.10;99.90;;;;;;5093618;23;20149;-87
2023/07/01 09:03:40;;;;;;;4.00;2.85;;;21.10;99.90;;;;;;5069256;23;20538;-86
2023/07/01 09:05:41;;;;;;;2.63;2.25;;;21.20;99.90;;;;;;5093592;23;20151;-87
2023/07/01 09:07:42;;;;;;;5.20;2.90;;;21.40;99.90;;;;;;5069286;23;20260;-86
2023/07/01 09:09:44;;;;;;;3.35;3.00;;;21.40;99.90;;;;;;5069151;23;20161;-86
2023/07/01 09:11:47;;;;;;;5.38;2.55;;;21.40;99.90;;;;;;5069185;23;20201;-85
2023/07/01 09:13:54;;;;;;;3.45;2.65;;;21.40;99.90;;;;;;5093712;23;20149;-86
2023/07/01 09:15:55;;;;;;;5.70;3.00;;;21.40;99.90;;;;;;5069386;23;20632;-85
2023/07/01 09:17:56;;;;;;;4.53;2.60;;;21.50;99.90;;;;;;5069415;23;20186;-86
2023/07/01 09:20:02;;;;;;;5.45;2.53;;;21.70;99.90;;;;;;5093571;23;20207;-87
2023/07/01 09:22:09;;;;;;;2.63;2.15;;;21.90;99.90;;;;;;5093606;23;20192;-86
2023/07/01 09:24:12;;;;;;;4.47;2.03;;;22.10;99.90;;;;;;5069367;23;20237;-86
2023/07/01 09:26:15;;;;;;;2.53;1.73;;;22.10;99.90;;;;;;5094676;23;20155;-88
2023/07/01 09:28:30;;;;;;;3.65;1.95;;;22.30;99.90;;;;;;5093572;23;20639;-86
2023/07/01 09:30:31;;;;;;;3.92;1.95;;;22.20;99.90;;;;;;5094024;23;20153;-90
2023/07/01 09:32:34;;;;;;;5.90;2.17;;;22.30;99.90;;;;;;5068965;23;20251;-87
2023/07/01 09:34:57;;;;;;;3.03;1.70;;;22.10;99.90;;;;;;5069045;23;20242;-87
2023/07/01 09:37:15;;;;;;;3.53;1.75;;;22.30;99.90;;;;;;5069399;23;20181;-86
2023/07/01 09:39:31;;;;;;;2.55;1.50;;;22.20;99.90;;;;;;5069153;23;20245;-86
2023/07/01 09:41:32;;;;;;;4.55;1.58;;;22.20;99.90;;;;;;5068686;23;20153;-86
2023/07/01 09:43:33;;;;;;;4.80;1.30;;;22.00;99.90;;;;;;5068577;23;20162;-86
2023/07/01 09:45:34;;;;;;;3.88;1.23;;;22.00;99.90;;;;;;5119446;23;20215;-85
2023/07/01 09:47:35;;;;;;;5.55;1.40;;;22.10;99.90;;;;;;5068687;23;20189;-86
2023/07/01 09:49:38;;;;;;;4.10;1.40;;;22.50;99.90;;;;;;5068440;23;20184;-86
2023/07/01 09:51:51;;;;;;;6.82;1.48;;;22.60;99.90;;;;;;5068741;23;20275;-86
2023/07/01 09:53:52;;;;;;;5.53;1.33;;;23.30;99.90;;;;;;5093405;23;20604;-86
2023/07/01 09:55:53;;;;;;;5.95;1.38;;;23.60;99.90;;;;;;5068663;23;20153;-87
2023/07/01 09:57:56;;;;;;;3.83;1.23;;;23.90;99.90;;;;;;5092985;23;20177;-85
2023/07/01 09:59:57;;;;;;;5.07;1.35;;;24.30;99.90;;;;;;5119130;23;20144;-87
2023/07/01 10:02:01;;;;;;;7.38;1.30;;;24.50;99.90;;;;;;5093151;23;20176;-86
2023/07/01 10:04:02;;;;;;;4.97;1.13;;;25.10;99.90;;;;;;5068738;23;20162;-86
2023/07/01 10:06:03;;;;;;;5.72;1.60;;;25.30;99.90;;;;;;5093221;23;20619;-85
2023/07/01 10:08:05;;;;;;;4.30;1.20;;;25.60;99.90;;;;;;5093039;23;20206;-86
2023/07/01 10:10:12;;;;;;;2.95;1.33;;;25.80;99.90;;;;;;5068904;23;20161;-86
2023/07/01 10:12:17;;;;;;;5.53;1.30;;;25.50;99.90;;;;;;5068566;23;20612;-86
2023/07/01 10:14:24;;;;;;;4.35;1.20;;;24.90;99.90;;;;;;5068944;23;20201;-86
2023/07/01 10:16:25;;;;;;;5.53;1.38;;;24.40;99.90;;;;;;5068567;23;20149;-86
2023/07/01 10:18:30;;;;;;;11.65;1.90;;;24.00;99.90;;;;;;5068688;23;20178;-86
2023/07/01 10:20:33;;;;;;;3.47;1.38;;;23.80;99.90;;;;;;5068594;23;20199;-85
2023/07/01 10:22:34;;;;;;;6.15;1.35;;;23.80;99.90;;;;;;5093034;23;20157;-86
2023/07/01 10:24:38;;;;;;;5.75;1.50;;;23.80;99.90;;;;;;5093055;23;20152;-86
2023/07/01 10:26:44;;;;;;;8.43;1.30;;;23.80;99.90;;;;;;5068759;23;20153;-85
2023/07/01 10:28:44;;;;;;;6.13;1.40;;;24.20;99.90;;;;;;5092782;23;20173;-85
2023/07/01 10:30:45;;;;;;;5.47;1.40;;;24.80;99.90;;;;;;5092979;23;20176;-86
2023/07/01 10:32:46;;;;;;;6.10;1.52;;;25.00;99.90;;;;;;5068540;23;20189;-85
2023/07/01 10:34:52;;;;;;;7.10;1.40;;;24.80;99.90;;;;;;5093079;23;20170;-85
2023/07/01 10:37:14;;;;;;;5.55;1.42;;;24.80;99.90;;;;;;5068696;23;20165;-86
2023/07/01 10:39:34;;;;;;;6.40;1.50;;;25.30;99.90;;;;;;5068433;23;20232;-85
2023/07/01 10:41:52;;;;;;;6.07;1.38;;;25.80;99.90;;;;;;5068018;23;20232;-85
2023/07/01 10:44:22;;;;;;;8.48;1.85;;;25.40;99.90;;;;;;5092884;23;20148;-86
2023/07/01 10:46:24;;;;;;;13.23;1.60;;;24.90;99.90;;;;;;5093163;23;20156;-86
2023/07/01 10:48:25;;;;;;;5.93;1.60;;;24.70;99.90;;;;;;5119130;23;20178;-86
2023/07/01 10:50:25;;;;;;;10.70;2.03;;;24.60;99.90;;;;;;5092840;23;20148;-86
2023/07/01 10:52:26;;;;;;;4.72;1.58;;;24.30;99.90;;;;;;5068234;23;20195;-86
2023/07/01 10:54:39;;;;;;;5.60;1.80;;;24.00;99.90;;;;;;5092877;23;20215;-86
2023/07/01 10:57:10;;;;;;;4.57;1.38;;;24.10;99.90;;;;;;5068391;23;20501;-86
2023/07/01 10:59:29;;;;;;;10.55;1.40;;;23.90;99.90;;;;;;5117432;23;20627;-87
2023/07/01 11:01:47;;;;;;;6.93;1.52;;;23.80;99.90;;;;;;5069525;23;20459;-86
2023/07/01 11:03:48;;;;;;;8.40;1.30;;;23.60;99.90;;;;;;5070262;23;20153;-86
2023/07/01 11:06:01;;;;;;;7.15;1.30;;;23.50;99.90;;;;;;5070138;23;20642;-85
2023/07/01 11:08:08;;;;;;;3.90;1.20;;;23.40;99.90;;;;;;5094393;23;20173;-87
2023/07/01 11:10:09;;;;;;;9.13;1.52;;;23.50;99.90;;;;;;5070220;23;20181;-86
2023/07/01 11:12:10;;;;;;;4.63;1.10;;;23.60;99.90;;;;;;5069835;23;20185;-85
2023/07/01 11:14:11;;;;;;;6.28;1.45;;;23.80;99.90;;;;;;5069474;23;20227;-86